sensor_id;sensor_type;location;lat;lon;timestamp;temperature;humidity
67161;DHT22;54088;52.238;21.104;2022-11-18T00:02:04;1.00;77.70
67161;DHT22;54088;52.238;21.104;2022-11-18T00:04:29;1.00;77.70
67161;DHT22;54088;52.238;21.104;2022-11-18T00:06:55;1.00;77.70
67161;DHT22;54088;52.238;21.104;2022-11-18T00:09:21;1.00;77.50
67161;DHT22;54088;52.238;21.104;2022-11-18T00:11:46;1.00;77.90
67161;DHT22;54088;52.238;21.104;2022-11-18T00:14:31;1.00;77.00
67161;DHT22;54088;52.238;21.104;2022-11-18T00:17:04;1.00;76.70
67161;DHT22;54088;52.238;21.104;2022-11-18T00:19:35;0.90;77.00
67161;DHT22;54088;52.238;21.104;2022-11-18T00:22:03;0.90;77.50
67161;DHT22;54088;52.238;21.104;2022-11-18T00:24:29;1.00;77.60
67161;DHT22;54088;52.238;21.104;2022-11-18T00:26:55;1.10;77.50
67161;DHT22;54088;52.238;21.104;2022-11-18T00:29:21;1.10;77.30
67161;DHT22;54088;52.238;21.104;2022-11-18T00:31:48;1.10;77.20
67161;DHT22;54088;52.238;21.104;2022-11-18T00:34:16;1.00;77.30
67161;DHT22;54088;52.238;21.104;2022-11-18T00:36:42;1.10;77.30
67161;DHT22;54088;52.238;21.104;2022-11-18T00:39:13;1.00;77.20
67161;DHT22;54088;52.238;21.104;2022-11-18T00:41:39;1.00;77.40
67161;DHT22;54088;52.238;21.104;2022-11-18T00:44:23;1.00;77.60
67161;DHT22;54088;52.238;21.104;2022-11-18T00:46:49;1.00;77.50
67161;DHT22;54088;52.238;21.104;2022-11-18T00:49:14;1.00;77.60
67161;DHT22;54088;52.238;21.104;2022-11-18T00:51:40;1.00;77.80
67161;DHT22;54088;52.238;21.104;2022-11-18T00:54:06;1.00;77.90
67161;DHT22;54088;52.238;21.104;2022-11-18T00:56:32;1.00;78.10
67161;DHT22;54088;52.238;21.104;2022-11-18T00:58:57;1.00;78.20
67161;DHT22;54088;52.238;21.104;2022-11-18T01:01:23;1.00;78.10
67161;DHT22;54088;52.238;21.104;2022-11-18T01:03:49;0.90;78.20
67161;DHT22;54088;52.238;21.104;2022-11-18T01:06:15;1.00;78.30
67161;DHT22;54088;52.238;21.104;2022-11-18T01:08:40;0.90;78.30
67161;DHT22;54088;52.238;21.104;2022-11-18T01:11:08;1.00;78.50
67161;DHT22;54088;52.238;21.104;2022-11-18T01:13:53;1.00;78.40
67161;DHT22;54088;52.238;21.104;2022-11-18T01:16:23;1.00;78.20
67161;DHT22;54088;52.238;21.104;2022-11-18T01:18:50;1.00;78.10
67161;DHT22;54088;52.238;21.104;2022-11-18T01:21:16;1.00;78.10
67161;DHT22;54088;52.238;21.104;2022-11-18T01:23:42;1.10;78.00
67161;DHT22;54088;52.238;21.104;2022-11-18T01:26:10;1.00;77.80
67161;DHT22;54088;52.238;21.104;2022-11-18T01:28:36;1.10;77.90
67161;DHT22;54088;52.238;21.104;2022-11-18T01:31:07;1.10;77.90
67161;DHT22;54088;52.238;21.104;2022-11-18T01:33:34;1.10;77.70
67161;DHT22;54088;52.238;21.104;2022-11-18T01:35:59;1.00;77.90
67161;DHT22;54088;52.238;21.104;2022-11-18T01:38:25;1.10;78.10
67161;DHT22;54088;52.238;21.104;2022-11-18T01:40:53;1.10;77.90
67161;DHT22;54088;52.238;21.104;2022-11-18T01:43:20;1.10;77.80
67161;DHT22;54088;52.238;21.104;2022-11-18T01:45:48;1.20;77.80
67161;DHT22;54088;52.238;21.104;2022-11-18T01:50:48;1.00;77.60
67161;DHT22;54088;52.238;21.104;2022-11-18T01:53:27;1.00;77.80
67161;DHT22;54088;52.238;21.104;2022-11-18T01:55:55;1.00;77.90
67161;DHT22;54088;52.238;21.104;2022-11-18T01:58:36;1.00;78.10
67161;DHT22;54088;52.238;21.104;2022-11-18T02:01:04;1.00;77.80
67161;DHT22;54088;52.238;21.104;2022-11-18T02:03:32;1.00;78.00
67161;DHT22;54088;52.238;21.104;2022-11-18T02:05:59;1.10;77.70
67161;DHT22;54088;52.238;21.104;2022-11-18T02:08:26;1.00;77.90
67161;DHT22;54088;52.238;21.104;2022-11-18T02:10:53;1.00;78.00
67161;DHT22;54088;52.238;21.104;2022-11-18T02:13:19;1.00;78.00
67161;DHT22;54088;52.238;21.104;2022-11-18T02:21:29;1.10;78.00
67161;DHT22;54088;52.238;21.104;2022-11-18T02:29:41;0.90;78.70
67161;DHT22;54088;52.238;21.104;2022-11-18T02:32:18;0.90;78.80
67161;DHT22;54088;52.238;21.104;2022-11-18T02:34:57;0.90;79.10
67161;DHT22;54088;52.238;21.104;2022-11-18T02:37:55;0.90;79.20
67161;DHT22;54088;52.238;21.104;2022-11-18T02:40:35;1.00;79.10
67161;DHT22;54088;52.238;21.104;2022-11-18T02:43:16;1.00;79.20
67161;DHT22;54088;52.238;21.104;2022-11-18T02:45:47;1.00;79.10
67161;DHT22;54088;52.238;21.104;2022-11-18T02:48:15;1.00;79.20
67161;DHT22;54088;52.238;21.104;2022-11-18T02:50:43;1.00;79.20
67161;DHT22;54088;52.238;21.104;2022-11-18T02:53:12;1.00;79.40
67161;DHT22;54088;52.238;21.104;2022-11-18T02:55:39;1.10;79.40
67161;DHT22;54088;52.238;21.104;2022-11-18T02:58:07;1.10;79.10
67161;DHT22;54088;52.238;21.104;2022-11-18T03:00:35;1.20;79.20
67161;DHT22;54088;52.238;21.104;2022-11-18T03:03:27;1.20;79.20
67161;DHT22;54088;52.238;21.104;2022-11-18T03:06:26;1.20;79.30
67161;DHT22;54088;52.238;21.104;2022-11-18T03:09:33;1.30;79.30
67161;DHT22;54088;52.238;21.104;2022-11-18T03:22:42;1.10;80.20
67161;DHT22;54088;52.238;21.104;2022-11-18T03:25:35;1.10;80.50
67161;DHT22;54088;52.238;21.104;2022-11-18T03:28:08;1.10;80.60
67161;DHT22;54088;52.238;21.104;2022-11-18T03:30:37;1.10;81.20
67161;DHT22;54088;52.238;21.104;2022-11-18T03:33:08;0.90;81.60
67161;DHT22;54088;52.238;21.104;2022-11-18T03:35:38;0.90;82.30
67161;DHT22;54088;52.238;21.104;2022-11-18T03:38:14;0.70;82.60
67161;DHT22;54088;52.238;21.104;2022-11-18T03:40:47;0.70;83.20
67161;DHT22;54088;52.238;21.104;2022-11-18T03:43:21;0.80;83.10
67161;DHT22;54088;52.238;21.104;2022-11-18T03:45:54;0.70;83.30
67161;DHT22;54088;52.238;21.104;2022-11-18T03:48:26;0.60;83.70
67161;DHT22;54088;52.238;21.104;2022-11-18T03:51:06;0.60;84.00
67161;DHT22;54088;52.238;21.104;2022-11-18T03:53:35;0.60;84.20
67161;DHT22;54088;52.238;21.104;2022-11-18T03:56:08;0.70;84.30
67161;DHT22;54088;52.238;21.104;2022-11-18T03:58:46;0.70;84.30
67161;DHT22;54088;52.238;21.104;2022-11-18T04:01:20;0.70;84.40
67161;DHT22;54088;52.238;21.104;2022-11-18T04:03:47;0.70;84.60
67161;DHT22;54088;52.238;21.104;2022-11-18T04:06:29;0.70;84.50
67161;DHT22;54088;52.238;21.104;2022-11-18T04:08:59;0.60;84.80
67161;DHT22;54088;52.238;21.104;2022-11-18T04:11:32;0.70;85.10
67161;DHT22;54088;52.238;21.104;2022-11-18T04:14:37;0.50;85.40
67161;DHT22;54088;52.238;21.104;2022-11-18T04:17:16;0.50;85.90
67161;DHT22;54088;52.238;21.104;2022-11-18T04:19:42;0.50;86.00
67161;DHT22;54088;52.238;21.104;2022-11-18T04:22:08;0.40;86.30
67161;DHT22;54088;52.238;21.104;2022-11-18T04:24:34;0.40;86.60
67161;DHT22;54088;52.238;21.104;2022-11-18T04:27:00;0.40;86.80
67161;DHT22;54088;52.238;21.104;2022-11-18T04:29:27;0.30;86.90
67161;DHT22;54088;52.238;21.104;2022-11-18T04:31:53;0.40;87.40
67161;DHT22;54088;52.238;21.104;2022-11-18T04:34:19;0.30;87.30
67161;DHT22;54088;52.238;21.104;2022-11-18T04:36:44;0.30;87.60
67161;DHT22;54088;52.238;21.104;2022-11-18T04:39:10;0.30;88.00
67161;DHT22;54088;52.238;21.104;2022-11-18T04:41:36;0.30;88.10
67161;DHT22;54088;52.238;21.104;2022-11-18T04:44:30;0.30;88.40
67161;DHT22;54088;52.238;21.104;2022-11-18T04:46:57;0.30;88.50
67161;DHT22;54088;52.238;21.104;2022-11-18T04:49:24;0.30;88.70
67161;DHT22;54088;52.238;21.104;2022-11-18T04:51:51;0.20;89.20
67161;DHT22;54088;52.238;21.104;2022-11-18T04:54:17;0.20;89.40
67161;DHT22;54088;52.238;21.104;2022-11-18T04:56:43;0.20;89.80
67161;DHT22;54088;52.238;21.104;2022-11-18T04:59:10;0.10;90.10
67161;DHT22;54088;52.238;21.104;2022-11-18T05:01:36;0.20;90.20
67161;DHT22;54088;52.238;21.104;2022-11-18T05:04:04;0.20;90.30
67161;DHT22;54088;52.238;21.104;2022-11-18T05:06:30;0.10;90.40
67161;DHT22;54088;52.238;21.104;2022-11-18T05:08:57;0.20;90.40
67161;DHT22;54088;52.238;21.104;2022-11-18T05:11:24;0.10;90.50
67161;DHT22;54088;52.238;21.104;2022-11-18T05:14:09;0.10;90.50
67161;DHT22;54088;52.238;21.104;2022-11-18T05:16:34;0.00;90.60
67161;DHT22;54088;52.238;21.104;2022-11-18T05:19:01;-0.10;90.70
67161;DHT22;54088;52.238;21.104;2022-11-18T05:21:27;-0.10;90.80
67161;DHT22;54088;52.238;21.104;2022-11-18T05:23:53;0.00;90.80
67161;DHT22;54088;52.238;21.104;2022-11-18T05:26:18;0.00;90.70
67161;DHT22;54088;52.238;21.104;2022-11-18T05:28:44;0.00;90.80
67161;DHT22;54088;52.238;21.104;2022-11-18T05:31:12;0.00;90.70
67161;DHT22;54088;52.238;21.104;2022-11-18T05:33:39;0.00;90.70
67161;DHT22;54088;52.238;21.104;2022-11-18T05:36:07;0.10;90.60
67161;DHT22;54088;52.238;21.104;2022-11-18T05:38:33;0.20;90.60
67161;DHT22;54088;52.238;21.104;2022-11-18T05:40:59;0.10;90.30
67161;DHT22;54088;52.238;21.104;2022-11-18T05:43:25;0.10;90.30
67161;DHT22;54088;52.238;21.104;2022-11-18T05:45:51;0.10;90.20
67161;DHT22;54088;52.238;21.104;2022-11-18T05:48:17;0.20;90.30
67161;DHT22;54088;52.238;21.104;2022-11-18T05:50:46;0.20;90.10
67161;DHT22;54088;52.238;21.104;2022-11-18T05:53:13;0.20;89.80
67161;DHT22;54088;52.238;21.104;2022-11-18T05:58:18;0.00;89.60
67161;DHT22;54088;52.238;21.104;2022-11-18T06:00:46;-0.10;89.50
67161;DHT22;54088;52.238;21.104;2022-11-18T06:03:19;0.00;89.90
67161;DHT22;54088;52.238;21.104;2022-11-18T06:05:46;0.00;89.90
67161;DHT22;54088;52.238;21.104;2022-11-18T06:08:15;0.00;89.40
67161;DHT22;54088;52.238;21.104;2022-11-18T06:10:44;0.00;89.20
67161;DHT22;54088;52.238;21.104;2022-11-18T06:13:17;0.00;89.20
67161;DHT22;54088;52.238;21.104;2022-11-18T06:15:45;0.00;89.10
67161;DHT22;54088;52.238;21.104;2022-11-18T06:18:23;0.00;89.20
67161;DHT22;54088;52.238;21.104;2022-11-18T06:20:52;0.00;89.00
67161;DHT22;54088;52.238;21.104;2022-11-18T06:23:19;0.10;88.80
67161;DHT22;54088;52.238;21.104;2022-11-18T06:25:45;0.10;89.00
67161;DHT22;54088;52.238;21.104;2022-11-18T06:28:12;0.10;89.20
67161;DHT22;54088;52.238;21.104;2022-11-18T06:30:39;0.20;89.20
67161;DHT22;54088;52.238;21.104;2022-11-18T06:33:05;0.20;88.90
67161;DHT22;54088;52.238;21.104;2022-11-18T06:35:31;0.10;88.80
67161;DHT22;54088;52.238;21.104;2022-11-18T06:37:57;0.10;89.20
67161;DHT22;54088;52.238;21.104;2022-11-18T06:40:22;0.10;89.50
67161;DHT22;54088;52.238;21.104;2022-11-18T06:42:48;0.10;89.50
67161;DHT22;54088;52.238;21.104;2022-11-18T06:45:32;0.10;90.00
67161;DHT22;54088;52.238;21.104;2022-11-18T06:47:58;0.10;90.00
67161;DHT22;54088;52.238;21.104;2022-11-18T06:50:25;0.10;89.90
67161;DHT22;54088;52.238;21.104;2022-11-18T06:52:52;0.20;90.00
67161;DHT22;54088;52.238;21.104;2022-11-18T06:55:18;0.20;89.70
67161;DHT22;54088;52.238;21.104;2022-11-18T06:57:43;0.20;89.70
67161;DHT22;54088;52.238;21.104;2022-11-18T07:00:10;0.20;89.80
67161;DHT22;54088;52.238;21.104;2022-11-18T07:02:36;0.20;89.50
67161;DHT22;54088;52.238;21.104;2022-11-18T07:05:02;0.10;89.60
67161;DHT22;54088;52.238;21.104;2022-11-18T07:07:28;0.10;90.00
67161;DHT22;54088;52.238;21.104;2022-11-18T07:09:53;0.20;90.10
67161;DHT22;54088;52.238;21.104;2022-11-18T07:12:19;0.20;90.10
67161;DHT22;54088;52.238;21.104;2022-11-18T07:14:44;0.20;90.20
67161;DHT22;54088;52.238;21.104;2022-11-18T07:17:10;0.10;90.10
67161;DHT22;54088;52.238;21.104;2022-11-18T07:19:36;0.20;90.10
67161;DHT22;54088;52.238;21.104;2022-11-18T07:22:02;0.10;90.00
67161;DHT22;54088;52.238;21.104;2022-11-18T07:24:28;0.20;90.00
67161;DHT22;54088;52.238;21.104;2022-11-18T07:26:54;0.20;90.00
67161;DHT22;54088;52.238;21.104;2022-11-18T07:29:19;0.30;89.60
67161;DHT22;54088;52.238;21.104;2022-11-18T07:31:45;0.30;89.70
67161;DHT22;54088;52.238;21.104;2022-11-18T07:34:11;0.50;89.40
67161;DHT22;54088;52.238;21.104;2022-11-18T07:36:37;0.60;89.00
67161;DHT22;54088;52.238;21.104;2022-11-18T07:39:04;0.60;88.20
67161;DHT22;54088;52.238;21.104;2022-11-18T07:41:31;0.60;87.30
67161;DHT22;54088;52.238;21.104;2022-11-18T07:43:59;0.50;87.30
67161;DHT22;54088;52.238;21.104;2022-11-18T07:46:35;0.50;87.00
67161;DHT22;54088;52.238;21.104;2022-11-18T07:49:03;0.50;86.80
67161;DHT22;54088;52.238;21.104;2022-11-18T07:51:32;0.60;86.80
67161;DHT22;54088;52.238;21.104;2022-11-18T07:53:59;0.60;85.60
67161;DHT22;54088;52.238;21.104;2022-11-18T07:56:25;0.70;85.50
67161;DHT22;54088;52.238;21.104;2022-11-18T07:58:54;0.70;85.60
67161;DHT22;54088;52.238;21.104;2022-11-18T08:01:22;0.60;85.10
67161;DHT22;54088;52.238;21.104;2022-11-18T08:03:48;0.60;85.80
67161;DHT22;54088;52.238;21.104;2022-11-18T08:06:16;0.60;85.80
67161;DHT22;54088;52.238;21.104;2022-11-18T08:08:43;0.70;85.60
67161;DHT22;54088;52.238;21.104;2022-11-18T08:11:11;0.70;85.20
67161;DHT22;54088;52.238;21.104;2022-11-18T08:13:37;0.70;84.60
67161;DHT22;54088;52.238;21.104;2022-11-18T08:16:05;0.80;84.40
67161;DHT22;54088;52.238;21.104;2022-11-18T08:18:35;0.80;83.90
67161;DHT22;54088;52.238;21.104;2022-11-18T08:21:02;0.70;83.70
67161;DHT22;54088;52.238;21.104;2022-11-18T08:23:28;0.90;83.70
67161;DHT22;54088;52.238;21.104;2022-11-18T08:26:04;0.90;82.90
67161;DHT22;54088;52.238;21.104;2022-11-18T08:28:31;0.80;82.70
67161;DHT22;54088;52.238;21.104;2022-11-18T08:30:57;0.80;82.90
67161;DHT22;54088;52.238;21.104;2022-11-18T08:33:23;0.70;82.30
67161;DHT22;54088;52.238;21.104;2022-11-18T08:35:48;0.60;82.50
67161;DHT22;54088;52.238;21.104;2022-11-18T08:38:14;0.70;82.90
67161;DHT22;54088;52.238;21.104;2022-11-18T08:40:41;0.70;82.60
67161;DHT22;54088;52.238;21.104;2022-11-18T08:43:10;0.80;82.50
67161;DHT22;54088;52.238;21.104;2022-11-18T08:45:39;0.90;82.00
67161;DHT22;54088;52.238;21.104;2022-11-18T08:48:05;0.80;80.90
67161;DHT22;54088;52.238;21.104;2022-11-18T08:50:31;0.80;81.40
67161;DHT22;54088;52.238;21.104;2022-11-18T08:52:57;0.90;81.40
67161;DHT22;54088;52.238;21.104;2022-11-18T08:55:22;0.80;79.40
67161;DHT22;54088;52.238;21.104;2022-11-18T08:57:48;0.70;79.90
67161;DHT22;54088;52.238;21.104;2022-11-18T09:00:14;0.70;79.80
67161;DHT22;54088;52.238;21.104;2022-11-18T09:02:40;0.60;80.00
67161;DHT22;54088;52.238;21.104;2022-11-18T09:05:06;0.60;80.30
67161;DHT22;54088;52.238;21.104;2022-11-18T09:07:32;0.70;80.00
67161;DHT22;54088;52.238;21.104;2022-11-18T09:09:57;0.70;79.50
67161;DHT22;54088;52.238;21.104;2022-11-18T09:12:23;0.70;79.70
67161;DHT22;54088;52.238;21.104;2022-11-18T09:14:49;0.70;79.40
67161;DHT22;54088;52.238;21.104;2022-11-18T09:17:14;0.80;79.50
67161;DHT22;54088;52.238;21.104;2022-11-18T09:19:40;0.90;79.10
67161;DHT22;54088;52.238;21.104;2022-11-18T09:22:07;0.80;78.80
67161;DHT22;54088;52.238;21.104;2022-11-18T09:24:33;0.80;78.80
67161;DHT22;54088;52.238;21.104;2022-11-18T09:27:02;0.80;79.10
67161;DHT22;54088;52.238;21.104;2022-11-18T09:29:29;0.80;78.70
67161;DHT22;54088;52.238;21.104;2022-11-18T09:31:55;0.90;78.80
67161;DHT22;54088;52.238;21.104;2022-11-18T09:34:21;0.80;78.00
67161;DHT22;54088;52.238;21.104;2022-11-18T09:36:48;0.80;78.20
67161;DHT22;54088;52.238;21.104;2022-11-18T09:39:13;0.80;78.80
67161;DHT22;54088;52.238;21.104;2022-11-18T09:41:59;0.80;78.20
67161;DHT22;54088;52.238;21.104;2022-11-18T09:47:29;0.70;78.50
67161;DHT22;54088;52.238;21.104;2022-11-18T09:49:58;0.70;79.00
67161;DHT22;54088;52.238;21.104;2022-11-18T09:52:37;0.80;78.70
67161;DHT22;54088;52.238;21.104;2022-11-18T09:55:11;1.00;78.40
67161;DHT22;54088;52.238;21.104;2022-11-18T09:57:49;1.10;78.10
67161;DHT22;54088;52.238;21.104;2022-11-18T10:02:54;1.00;77.40
67161;DHT22;54088;52.238;21.104;2022-11-18T10:05:24;1.00;77.00
67161;DHT22;54088;52.238;21.104;2022-11-18T10:10:23;1.10;76.90
67161;DHT22;54088;52.238;21.104;2022-11-18T10:12:56;1.20;77.30
67161;DHT22;54088;52.238;21.104;2022-11-18T10:15:38;1.20;76.60
67161;DHT22;54088;52.238;21.104;2022-11-18T10:23:23;1.30;76.60
67161;DHT22;54088;52.238;21.104;2022-11-18T10:25:52;1.40;75.20
67161;DHT22;54088;52.238;21.104;2022-11-18T10:28:27;1.20;75.10
67161;DHT22;54088;52.238;21.104;2022-11-18T10:31:07;1.10;76.10
67161;DHT22;54088;52.238;21.104;2022-11-18T10:33:33;1.10;77.00
67161;DHT22;54088;52.238;21.104;2022-11-18T10:38:36;1.20;76.80
67161;DHT22;54088;52.238;21.104;2022-11-18T10:41:05;1.30;76.60
67161;DHT22;54088;52.238;21.104;2022-11-18T10:43:45;1.40;76.30
67161;DHT22;54088;52.238;21.104;2022-11-18T10:46:31;1.30;74.00
67161;DHT22;54088;52.238;21.104;2022-11-18T10:51:46;0.90;75.10
67161;DHT22;54088;52.238;21.104;2022-11-18T11:04:44;1.00;76.00
67161;DHT22;54088;52.238;21.104;2022-11-18T11:07:30;1.10;76.00
67161;DHT22;54088;52.238;21.104;2022-11-18T11:12:43;1.30;74.50
67161;DHT22;54088;52.238;21.104;2022-11-18T11:15:43;1.30;74.60
67161;DHT22;54088;52.238;21.104;2022-11-18T11:18:16;1.30;73.60
67161;DHT22;54088;52.238;21.104;2022-11-18T11:21:10;1.40;73.80
67161;DHT22;54088;52.238;21.104;2022-11-18T11:23:36;1.40;73.60
67161;DHT22;54088;52.238;21.104;2022-11-18T11:26:22;1.50;73.60
67161;DHT22;54088;52.238;21.104;2022-11-18T11:34:10;1.60;71.30
67161;DHT22;54088;52.238;21.104;2022-11-18T11:36:45;1.60;72.00
67161;DHT22;54088;52.238;21.104;2022-11-18T11:50:45;1.70;69.40
67161;DHT22;54088;52.238;21.104;2022-11-18T12:02:28;1.70;70.70
67161;DHT22;54088;52.238;21.104;2022-11-18T12:05:35;1.80;70.70
67161;DHT22;54088;52.238;21.104;2022-11-18T12:21:01;1.70;69.60
67161;DHT22;54088;52.238;21.104;2022-11-18T12:23:29;1.70;70.10
67161;DHT22;54088;52.238;21.104;2022-11-18T12:26:08;1.80;70.20
67161;DHT22;54088;52.238;21.104;2022-11-18T12:28:41;1.70;70.20
67161;DHT22;54088;52.238;21.104;2022-11-18T12:34:05;1.40;70.30
67161;DHT22;54088;52.238;21.104;2022-11-18T12:36:41;1.50;70.60
67161;DHT22;54088;52.238;21.104;2022-11-18T12:42:03;1.40;71.30
67161;DHT22;54088;52.238;21.104;2022-11-18T12:44:49;1.40;71.70
67161;DHT22;54088;52.238;21.104;2022-11-18T12:55:03;1.30;71.60
67161;DHT22;54088;52.238;21.104;2022-11-18T12:57:40;1.30;71.70
67161;DHT22;54088;52.238;21.104;2022-11-18T13:00:38;1.20;71.70
67161;DHT22;54088;52.238;21.104;2022-11-18T13:03:23;1.20;71.80
67161;DHT22;54088;52.238;21.104;2022-11-18T13:06:41;1.20;71.80
67161;DHT22;54088;52.238;21.104;2022-11-18T13:08:42;1.20;72.30
67161;DHT22;54088;52.238;21.104;2022-11-18T13:11:14;1.20;72.10
67161;DHT22;54088;52.238;21.104;2022-11-18T13:14:00;1.20;72.10
67161;DHT22;54088;52.238;21.104;2022-11-18T13:16:44;1.20;72.50
67161;DHT22;54088;52.238;21.104;2022-11-18T13:19:28;1.10;72.80
67161;DHT22;54088;52.238;21.104;2022-11-18T13:21:55;1.20;73.10
67161;DHT22;54088;52.238;21.104;2022-11-18T13:24:51;1.30;73.20
67161;DHT22;54088;52.238;21.104;2022-11-18T13:30:00;1.40;73.40
67161;DHT22;54088;52.238;21.104;2022-11-18T13:32:28;1.40;73.20
67161;DHT22;54088;52.238;21.104;2022-11-18T13:35:18;1.40;73.10
67161;DHT22;54088;52.238;21.104;2022-11-18T13:37:52;1.40;73.70
67161;DHT22;54088;52.238;21.104;2022-11-18T13:42:48;1.40;73.40
67161;DHT22;54088;52.238;21.104;2022-11-18T13:45:14;1.30;73.90
67161;DHT22;54088;52.238;21.104;2022-11-18T13:50:33;1.10;75.10
67161;DHT22;54088;52.238;21.104;2022-11-18T13:53:26;1.20;75.60
67161;DHT22;54088;52.238;21.104;2022-11-18T14:01:02;1.10;76.20
67161;DHT22;54088;52.238;21.104;2022-11-18T14:06:10;1.10;77.30
67161;DHT22;54088;52.238;21.104;2022-11-18T14:08:38;1.10;77.30
67161;DHT22;54088;52.238;21.104;2022-11-18T14:11:05;1.20;77.40
67161;DHT22;54088;52.238;21.104;2022-11-18T14:13:32;1.10;77.50
67161;DHT22;54088;52.238;21.104;2022-11-18T14:18:46;0.90;78.70
67161;DHT22;54088;52.238;21.104;2022-11-18T14:21:13;0.90;79.20
67161;DHT22;54088;52.238;21.104;2022-11-18T14:23:42;0.80;79.70
67161;DHT22;54088;52.238;21.104;2022-11-18T14:26:09;0.90;79.90
67161;DHT22;54088;52.238;21.104;2022-11-18T14:28:38;0.80;79.90
67161;DHT22;54088;52.238;21.104;2022-11-18T14:33:41;0.90;80.70
67161;DHT22;54088;52.238;21.104;2022-11-18T14:36:27;0.80;80.60
67161;DHT22;54088;52.238;21.104;2022-11-18T14:38:53;0.80;81.00
67161;DHT22;54088;52.238;21.104;2022-11-18T14:41:20;0.70;81.70
67161;DHT22;54088;52.238;21.104;2022-11-18T14:44:05;0.60;82.20
67161;DHT22;54088;52.238;21.104;2022-11-18T14:46:31;0.50;82.40
67161;DHT22;54088;52.238;21.104;2022-11-18T14:49:01;0.50;83.10
67161;DHT22;54088;52.238;21.104;2022-11-18T14:51:27;0.60;83.30
67161;DHT22;54088;52.238;21.104;2022-11-18T14:53:52;0.70;83.30
67161;DHT22;54088;52.238;21.104;2022-11-18T14:56:29;0.70;83.10
67161;DHT22;54088;52.238;21.104;2022-11-18T14:58:55;0.70;83.40
67161;DHT22;54088;52.238;21.104;2022-11-18T15:01:22;0.80;83.40
67161;DHT22;54088;52.238;21.104;2022-11-18T15:03:52;0.70;84.20
67161;DHT22;54088;52.238;21.104;2022-11-18T15:06:19;0.60;84.60
67161;DHT22;54088;52.238;21.104;2022-11-18T15:08:47;0.60;84.90
67161;DHT22;54088;52.238;21.104;2022-11-18T15:11:13;0.60;85.30
67161;DHT22;54088;52.238;21.104;2022-11-18T15:13:39;0.60;85.70
67161;DHT22;54088;52.238;21.104;2022-11-18T15:16:26;0.60;85.70
67161;DHT22;54088;52.238;21.104;2022-11-18T15:18:58;0.60;85.80
67161;DHT22;54088;52.238;21.104;2022-11-18T15:21:26;0.60;85.90
67161;DHT22;54088;52.238;21.104;2022-11-18T15:23:52;0.50;86.00
67161;DHT22;54088;52.238;21.104;2022-11-18T15:26:35;0.50;85.20
67161;DHT22;54088;52.238;21.104;2022-11-18T15:29:03;0.50;85.10
67161;DHT22;54088;52.238;21.104;2022-11-18T15:31:28;0.40;85.30
67161;DHT22;54088;52.238;21.104;2022-11-18T15:33:54;0.40;85.70
67161;DHT22;54088;52.238;21.104;2022-11-18T15:36:22;0.40;85.80
67161;DHT22;54088;52.238;21.104;2022-11-18T15:38:49;0.30;85.80
67161;DHT22;54088;52.238;21.104;2022-11-18T15:41:23;0.30;86.20
67161;DHT22;54088;52.238;21.104;2022-11-18T15:43:50;0.20;86.30
67161;DHT22;54088;52.238;21.104;2022-11-18T15:46:17;0.10;86.40
67161;DHT22;54088;52.238;21.104;2022-11-18T15:48:44;0.10;86.80
67161;DHT22;54088;52.238;21.104;2022-11-18T15:51:10;0.00;87.20
67161;DHT22;54088;52.238;21.104;2022-11-18T15:53:36;0.00;87.50
67161;DHT22;54088;52.238;21.104;2022-11-18T15:58:39;-0.10;87.10
67161;DHT22;54088;52.238;21.104;2022-11-18T16:01:05;-0.10;87.40
67161;DHT22;54088;52.238;21.104;2022-11-18T16:03:31;-0.10;86.70
67161;DHT22;54088;52.238;21.104;2022-11-18T16:05:58;-0.10;87.90
67161;DHT22;54088;52.238;21.104;2022-11-18T16:08:23;-0.10;87.40
67161;DHT22;54088;52.238;21.104;2022-11-18T16:10:54;-0.10;87.30
67161;DHT22;54088;52.238;21.104;2022-11-18T16:13:38;-0.20;87.50
67161;DHT22;54088;52.238;21.104;2022-11-18T16:16:04;-0.10;88.00
67161;DHT22;54088;52.238;21.104;2022-11-18T16:18:30;-0.10;88.00
67161;DHT22;54088;52.238;21.104;2022-11-18T16:20:57;-0.20;87.70
67161;DHT22;54088;52.238;21.104;2022-11-18T16:23:23;-0.30;88.20
67161;DHT22;54088;52.238;21.104;2022-11-18T16:25:49;-0.30;88.80
67161;DHT22;54088;52.238;21.104;2022-11-18T16:28:15;-0.30;88.90
67161;DHT22;54088;52.238;21.104;2022-11-18T16:30:45;-0.30;87.60
67161;DHT22;54088;52.238;21.104;2022-11-18T16:33:30;-0.30;87.50
67161;DHT22;54088;52.238;21.104;2022-11-18T16:35:55;-0.40;87.30
67161;DHT22;54088;52.238;21.104;2022-11-18T16:38:21;-0.40;85.90
67161;DHT22;54088;52.238;21.104;2022-11-18T16:40:56;-0.50;85.50
67161;DHT22;54088;52.238;21.104;2022-11-18T16:43:22;-0.50;85.80
67161;DHT22;54088;52.238;21.104;2022-11-18T16:45:52;-0.40;86.20
67161;DHT22;54088;52.238;21.104;2022-11-18T16:48:19;-0.40;86.10
67161;DHT22;54088;52.238;21.104;2022-11-18T16:50:54;-0.40;86.30
67161;DHT22;54088;52.238;21.104;2022-11-18T16:53:25;-0.40;86.60
67161;DHT22;54088;52.238;21.104;2022-11-18T16:55:51;-0.40;87.00
67161;DHT22;54088;52.238;21.104;2022-11-18T16:58:16;-0.50;86.90
67161;DHT22;54088;52.238;21.104;2022-11-18T17:00:42;-0.50;86.70
67161;DHT22;54088;52.238;21.104;2022-11-18T17:03:08;-0.60;86.90
67161;DHT22;54088;52.238;21.104;2022-11-18T17:05:33;-0.60;87.00
67161;DHT22;54088;52.238;21.104;2022-11-18T17:07:59;-0.60;87.60
67161;DHT22;54088;52.238;21.104;2022-11-18T17:10:25;-0.70;87.90
67161;DHT22;54088;52.238;21.104;2022-11-18T17:12:51;-0.70;87.90
67161;DHT22;54088;52.238;21.104;2022-11-18T17:15:16;-0.60;87.90
67161;DHT22;54088;52.238;21.104;2022-11-18T17:17:42;-0.50;87.70
67161;DHT22;54088;52.238;21.104;2022-11-18T17:20:08;-0.60;87.40
67161;DHT22;54088;52.238;21.104;2022-11-18T17:22:34;-0.60;87.70
67161;DHT22;54088;52.238;21.104;2022-11-18T17:24:59;-0.60;87.80
67161;DHT22;54088;52.238;21.104;2022-11-18T17:27:25;-0.60;87.60
67161;DHT22;54088;52.238;21.104;2022-11-18T17:29:51;-0.50;87.50
67161;DHT22;54088;52.238;21.104;2022-11-18T17:32:17;-0.50;86.90
67161;DHT22;54088;52.238;21.104;2022-11-18T17:34:42;-0.50;86.00
67161;DHT22;54088;52.238;21.104;2022-11-18T17:37:08;-0.60;85.90
67161;DHT22;54088;52.238;21.104;2022-11-18T17:39:34;-0.60;85.00
67161;DHT22;54088;52.238;21.104;2022-11-18T17:42:00;-0.70;85.20
67161;DHT22;54088;52.238;21.104;2022-11-18T17:44:43;-0.70;85.00
67161;DHT22;54088;52.238;21.104;2022-11-18T17:47:09;-0.60;85.10
67161;DHT22;54088;52.238;21.104;2022-11-18T17:49:34;-0.50;84.90
67161;DHT22;54088;52.238;21.104;2022-11-18T17:52:00;-0.50;84.70
67161;DHT22;54088;52.238;21.104;2022-11-18T17:54:26;-0.50;84.70
67161;DHT22;54088;52.238;21.104;2022-11-18T17:56:51;-0.50;84.60
67161;DHT22;54088;52.238;21.104;2022-11-18T17:59:17;-0.60;84.40
67161;DHT22;54088;52.238;21.104;2022-11-18T18:01:44;-0.50;84.70